Time;durP1;ratioP1;P1;durP2;ratioP2;P2;SDS_P1;SDS_P2;PMS_P1;PMS_P2;Temp;Humidity;BMP_temperature;BMP_pressure;BME280_temperature;BME280_humidity;BME280_pressure;Samples;Min_cycle;Max_cycle;Signal;HPM_P1;HPM_P2
2021/09/24 00:02:10;;;;;;;0.40;0.20;;;;;;;15.52;62.49;98869.89;113992;1190;137048;-75
2021/09/24 00:04:37;;;;;;;0.40;0.20;;;;;;;15.33;61.32;98875.70;114132;1190;93836;-76
2021/09/24 00:07:03;;;;;;;0.40;0.20;;;;;;;15.14;61.50;98881.36;113997;1190;137161;-75
2021/09/24 00:09:30;;;;;;;0.40;0.20;;;;;;;14.98;61.62;98891.23;114121;1190;93989;-76
2021/09/24 00:11:56;;;;;;;0.40;0.20;;;;;;;14.85;61.59;98897.40;114118;1190;94812;-73
2021/09/24 00:14:22;;;;;;;0.40;0.20;;;;;;;14.78;61.65;98903.77;113955;1190;137921;-75
2021/09/24 00:16:48;;;;;;;0.40;0.20;;;;;;;14.64;61.73;98909.55;114117;1190;93931;-75
2021/09/24 00:19:14;;;;;;;0.40;0.20;;;;;;;14.55;61.73;98904.05;114064;1190;137977;-73
2021/09/24 00:21:40;;;;;;;0.40;0.20;;;;;;;14.46;61.78;98910.20;114122;1190;93831;-75
2021/09/24 00:24:06;;;;;;;0.40;0.20;;;;;;;14.34;62.00;98901.16;114057;1191;94064;-76
2021/09/24 00:26:32;;;;;;;0.40;0.20;;;;;;;14.31;62.25;98901.17;114049;1190;137788;-76
2021/09/24 00:28:58;;;;;;;0.40;0.20;;;;;;;14.24;61.84;98904.82;114066;1190;108128;-76
2021/09/24 00:31:25;;;;;;;0.40;0.20;;;;;;;14.16;61.71;98913.02;114021;1190;136338;-77
2021/09/24 00:33:51;;;;;;;0.40;0.20;;;;;;;14.09;61.73;98914.02;114154;1190;94018;-77
2021/09/24 00:36:17;;;;;;;0.40;0.20;;;;;;;14.05;62.14;98903.55;114113;1190;93954;-77
2021/09/24 00:38:43;;;;;;;0.40;0.20;;;;;;;14.06;62.08;98906.36;114021;1190;137326;-75
2021/09/24 00:41:10;;;;;;;0.40;0.20;;;;;;;14.08;62.46;98903.58;114087;1190;93847;-77
2021/09/24 00:43:37;;;;;;;0.40;0.20;;;;;;;14.07;61.81;98905.22;114003;1190;137694;-75
2021/09/24 00:46:03;;;;;;;0.40;0.20;;;;;;;13.98;62.21;98914.51;114092;1190;93882;-75
2021/09/24 00:48:30;;;;;;;0.40;0.30;;;;;;;13.96;62.37;98916.29;114040;1190;139481;-77
2021/09/24 00:50:56;;;;;;;0.40;0.20;;;;;;;13.96;61.78;98919.17;114163;1191;93861;-74
2021/09/24 00:53:23;;;;;;;0.40;0.20;;;;;;;13.89;61.86;98924.40;114074;1190;108208;-75
2021/09/24 00:55:50;;;;;;;0.40;0.20;;;;;;;13.86;61.74;98922.10;114006;1190;137270;-74
2021/09/24 00:58:16;;;;;;;0.40;0.20;;;;;;;13.75;61.53;98929.00;114083;1192;93914;-75
2021/09/24 01:00:42;;;;;;;0.40;0.20;;;;;;;13.66;61.57;98924.79;113878;1192;138140;-75
2021/09/24 01:03:08;;;;;;;0.40;0.20;;;;;;;13.65;61.60;98926.59;114155;1190;93876;-74
2021/09/24 01:05:35;;;;;;;0.40;0.20;;;;;;;13.65;61.50;98928.80;113889;1190;108553;-74
2021/09/24 01:08:01;;;;;;;0.40;0.20;;;;;;;13.65;61.03;98928.57;113892;1190;137777;-74
2021/09/24 01:10:27;;;;;;;0.40;0.20;;;;;;;13.64;61.10;98926.54;114028;1190;94476;-75
2021/09/24 01:12:53;;;;;;;0.40;0.20;;;;;;;13.57;60.68;98930.13;113969;1190;137588;-75
2021/09/24 01:15:20;;;;;;;0.40;0.20;;;;;;;13.54;60.59;98926.41;113984;1190;108651;-74
2021/09/24 01:17:47;;;;;;;0.40;0.20;;;;;;;13.55;60.77;98921.52;114026;1190;93841;-75
2021/09/24 01:20:17;;;;;;;0.40;0.20;;;;;;;13.51;60.65;98921.92;113901;1190;137127;-73
2021/09/24 01:22:44;;;;;;;0.40;0.20;;;;;;;13.51;60.81;98925.52;114019;1190;94565;-75
2021/09/24 01:25:12;;;;;;;0.40;0.20;;;;;;;13.49;60.80;98930.09;113970;1190;137597;-74
2021/09/24 01:27:38;;;;;;;0.40;0.30;;;;;;;13.49;60.72;98927.11;114392;1190;93867;-76
2021/09/24 01:30:05;;;;;;;0.40;0.20;;;;;;;13.51;61.04;98931.39;114152;1190;93941;-75
2021/09/24 01:32:31;;;;;;;0.40;0.20;;;;;;;13.57;60.96;98932.63;113941;1190;137481;-74
2021/09/24 01:35:02;;;;;;;0.40;0.30;;;;;;;13.59;60.70;98934.50;114186;1190;94232;-74
2021/09/24 01:37:29;;;;;;;0.40;0.30;;;;;;;13.54;60.52;98937.10;113972;1190;137671;-76
2021/09/24 01:39:55;;;;;;;0.40;0.30;;;;;;;13.48;60.72;98942.14;114109;1190;95128;-74
2021/09/24 01:42:22;;;;;;;0.40;0.30;;;;;;;13.53;61.17;98946.10;113971;1190;138143;-75
2021/09/24 01:44:48;;;;;;;0.40;0.30;;;;;;;13.62;60.78;98945.52;114601;1191;93928;-73
2021/09/24 01:47:14;;;;;;;0.40;0.30;;;;;;;13.66;60.75;98943.30;114204;1190;93896;-74
2021/09/24 01:49:40;;;;;;;0.40;0.20;;;;;;;13.70;60.77;98944.13;114011;1190;137013;-76
2021/09/24 01:52:06;;;;;;;0.40;0.20;;;;;;;13.69;60.73;98937.40;114115;1190;93921;-75
2021/09/24 01:54:32;;;;;;;0.40;0.20;;;;;;;13.67;60.78;98938.78;114059;1190;140193;-75
2021/09/24 01:56:59;;;;;;;0.40;0.20;;;;;;;13.64;61.11;98941.11;114257;1192;93886;-75
2021/09/24 01:59:25;;;;;;;0.40;0.20;;;;;;;13.59;61.55;98942.54;114179;1190;93992;-76
2021/09/24 02:01:51;;;;;;;0.40;0.30;;;;;;;13.54;61.98;98941.23;114017;1190;137136;-76
2021/09/24 02:04:20;;;;;;;0.40;0.20;;;;;;;13.50;62.72;98935.23;114086;1192;93905;-75
2021/09/24 02:06:47;;;;;;;0.40;0.20;;;;;;;13.55;63.20;98938.33;114040;1190;137819;-77
2021/09/24 02:09:13;;;;;;;0.40;0.20;;;;;;;13.57;63.04;98937.98;114192;1190;94400;-75
2021/09/24 02:11:40;;;;;;;0.40;0.20;;;;;;;13.61;62.80;98937.74;114120;1190;93961;-75
2021/09/24 02:14:06;;;;;;;0.40;0.20;;;;;;;13.61;62.89;98931.67;114178;1192;137647;-74
2021/09/24 02:16:32;;;;;;;0.40;0.20;;;;;;;13.64;62.82;98936.48;114135;1190;105221;-74
2021/09/24 02:18:58;;;;;;;0.40;0.20;;;;;;;13.68;62.60;98938.71;114088;1190;139903;-74
2021/09/24 02:21:24;;;;;;;0.40;0.20;;;;;;;13.67;62.32;98942.18;114157;1190;93849;-76
2021/09/24 02:23:50;;;;;;;0.40;0.20;;;;;;;13.65;62.46;98944.10;114232;1191;93852;-75
2021/09/24 02:26:16;;;;;;;0.40;0.20;;;;;;;13.60;62.42;98940.52;114053;1190;137794;-74
2021/09/24 02:29:02;;;;;;;0.40;0.20;;;;;;;13.63;62.65;98942.27;114152;1190;109201;-77
2021/09/24 02:31:28;;;;;;;0.40;0.20;;;;;;;13.62;62.29;98948.95;114063;1190;137601;-76
2021/09/24 02:33:54;;;;;;;0.40;0.20;;;;;;;13.57;62.36;98944.27;114206;1190;95108;-75
2021/09/24 02:36:20;;;;;;;0.40;0.20;;;;;;;13.56;62.88;98957.67;114166;1190;94537;-75
2021/09/24 02:38:46;;;;;;;0.40;0.30;;;;;;;13.50;63.09;98953.94;114046;1190;137745;-74
2021/09/24 02:41:12;;;;;;;0.40;0.20;;;;;;;13.50;63.11;98961.27;114197;1190;94290;-74
2021/09/24 02:43:39;;;;;;;0.40;0.20;;;;;;;13.50;62.97;98963.55;114125;1190;137296;-78
2021/09/24 02:46:05;;;;;;;0.40;0.30;;;;;;;13.51;62.87;98967.95;114157;1190;93825;-77
2021/09/24 02:48:31;;;;;;;0.40;0.30;;;;;;;13.50;63.22;98970.30;114042;1190;137725;-74
2021/09/24 02:50:57;;;;;;;0.40;0.20;;;;;;;13.51;62.84;98975.83;114149;1190;94278;-76
2021/09/24 02:53:23;;;;;;;4.10;3.20;;;;;;;13.46;62.85;98983.41;114180;1190;93819;-75
2021/09/24 02:55:49;;;;;;;0.40;0.20;;;;;;;13.45;63.02;98984.02;113970;1190;137245;-73
2021/09/24 02:58:16;;;;;;;0.40;0.20;;;;;;;13.49;62.92;98995.50;114155;1190;93989;-74
2021/09/24 03:00:42;;;;;;;0.40;0.30;;;;;;;13.40;63.13;99001.41;114023;1190;137270;-74
2021/09/24 03:03:09;;;;;;;0.40;0.30;;;;;;;13.28;63.74;99001.07;114184;1190;94345;-75
2021/09/24 03:05:35;;;;;;;0.40;0.20;;;;;;;13.26;64.15;98991.55;114155;1190;109940;-74
2021/09/24 03:08:02;;;;;;;0.40;0.30;;;;;;;13.32;64.27;99006.15;114050;1190;137973;-74
2021/09/24 03:10:28;;;;;;;0.40;0.30;;;;;;;13.34;64.58;99008.16;114193;1190;93825;-75
2021/09/24 03:12:54;;;;;;;0.40;0.20;;;;;;;13.27;64.44;99007.33;114144;1190;138039;-77
2021/09/24 03:15:21;;;;;;;0.40;0.20;;;;;;;13.24;64.62;99008.48;114217;1190;93976;-75
2021/09/24 03:17:46;;;;;;;0.40;0.20;;;;;;;13.28;64.68;99011.23;114183;1190;94405;-75
2021/09/24 03:20:13;;;;;;;0.40;0.20;;;;;;;13.25;64.81;99011.26;114177;1192;137447;-75
2021/09/24 03:22:40;;;;;;;0.40;0.30;;;;;;;13.19;64.82;99012.81;114183;1190;108408;-75
2021/09/24 03:25:07;;;;;;;0.40;0.30;;;;;;;13.16;64.82;99014.23;114070;1190;138112;-76
2021/09/24 03:27:34;;;;;;;0.40;0.20;;;;;;;13.23;64.78;99019.55;114122;1190;94775;-74
2021/09/24 03:30:01;;;;;;;0.40;0.30;;;;;;;13.24;64.74;99016.07;114244;1190;93963;-76
2021/09/24 03:32:27;;;;;;;0.40;0.30;;;;;;;13.21;64.79;99024.79;114133;1190;137473;-76
2021/09/24 03:34:53;;;;;;;0.40;0.30;;;;;;;13.17;65.04;99032.88;114123;1190;94378;-75
2021/09/24 03:37:19;;;;;;;0.40;0.20;;;;;;;13.20;65.06;99031.14;114067;1190;138343;-74
2021/09/24 03:39:45;;;;;;;0.40;0.20;;;;;;;13.22;64.83;99032.98;114197;1190;93917;-75
2021/09/24 03:42:12;;;;;;;0.40;0.30;;;;;;;13.20;64.90;99033.40;114098;1193;94041;-73
2021/09/24 03:44:38;;;;;;;0.40;0.30;;;;;;;13.18;64.93;99035.33;114073;1190;137068;-75
2021/09/24 03:47:05;;;;;;;0.40;0.30;;;;;;;13.18;65.09;99043.32;114077;1191;108132;-75
2021/09/24 03:49:31;;;;;;;0.40;0.30;;;;;;;13.21;64.88;99045.48;114053;1190;137966;-75
2021/09/24 03:51:58;;;;;;;0.40;0.30;;;;;;;13.17;64.68;99053.93;114170;1191;94561;-75
2021/09/24 03:54:24;;;;;;;0.40;0.30;;;;;;;13.20;65.08;99059.11;114109;1191;94186;-75
2021/09/24 03:56:50;;;;;;;0.40;0.30;;;;;;;13.16;65.13;99065.92;114031;1192;138249;-75
2021/09/24 03:59:16;;;;;;;0.40;0.30;;;;;;;13.16;64.94;99069.64;114152;1190;107432;-75
2021/09/24 04:01:42;;;;;;;0.40;0.30;;;;;;;13.20;65.11;99071.76;114074;1191;137745;-74
2021/09/24 04:04:10;;;;;;;0.40;0.30;;;;;;;13.25;65.22;99069.89;114083;1190;94411;-77
2021/09/24 04:06:36;;;;;;;0.40;0.30;;;;;;;13.24;65.18;99073.13;113958;1190;137410;-74
2021/09/24 04:09:02;;;;;;;0.40;0.30;;;;;;;13.20;65.17;99073.13;114199;1190;93890;-75
2021/09/24 04:11:28;;;;;;;0.40;0.30;;;;;;;13.25;65.34;99078.09;114113;1192;108398;-75
2021/09/24 04:13:54;;;;;;;0.40;0.30;;;;;;;13.23;65.10;99077.44;113949;1190;137922;-76
2021/09/24 04:16:21;;;;;;;0.40;0.30;;;;;;;13.21;65.21;99082.39;114104;1192;93924;-77
2021/09/24 04:18:47;;;;;;;0.40;0.30;;;;;;;13.15;65.17;99085.18;114047;1190;138481;-74
2021/09/24 04:21:13;;;;;;;0.40;0.30;;;;;;;13.16;65.20;99087.84;114049;1190;108646;-76
2021/09/24 04:23:40;;;;;;;0.40;0.30;;;;;;;13.15;65.12;99090.73;114096;1190;93843;-76
2021/09/24 04:26:06;;;;;;;0.40;0.30;;;;;;;13.12;64.86;99086.46;113968;1190;137779;-76
2021/09/24 04:28:32;;;;;;;0.40;0.30;;;;;;;13.09;64.97;99089.65;114174;1190;93992;-74
2021/09/24 04:30:58;;;;;;;0.40;0.30;;;;;;;13.07;65.20;99090.66;113952;1190;137606;-75
2021/09/24 04:33:24;;;;;;;0.40;0.30;;;;;;;13.12;65.08;99094.67;114035;1191;93956;-76
2021/09/24 04:35:50;;;;;;;0.40;0.30;;;;;;;13.12;65.18;99101.11;114147;1190;93867;-74
2021/09/24 04:38:16;;;;;;;0.40;0.30;;;;;;;13.13;65.28;99101.93;113831;1190;137215;-75
2021/09/24 04:40:42;;;;;;;0.40;0.30;;;;;;;13.11;65.34;99110.43;114096;1190;93848;-74
2021/09/24 04:43:08;;;;;;;0.40;0.30;;;;;;;13.12;65.09;99113.73;113850;1190;139320;-76
2021/09/24 04:45:35;;;;;;;0.40;0.20;;;;;;;13.17;65.31;99117.17;114141;1190;93856;-76
2021/09/24 04:48:01;;;;;;;0.40;0.30;;;;;;;13.20;65.06;99116.30;114101;1190;109211;-77
2021/09/24 04:50:27;;;;;;;0.40;0.30;;;;;;;13.18;65.11;99114.98;113877;1190;138093;-76
2021/09/24 04:52:53;;;;;;;0.40;0.30;;;;;;;13.18;65.24;99125.73;114036;1190;93958;-75
2021/09/24 04:55:19;;;;;;;0.40;0.20;;;;;;;13.26;64.97;99132.54;113999;1190;137880;-76
2021/09/24 04:57:45;;;;;;;0.40;0.30;;;;;;;13.31;64.87;99126.73;114080;1190;94256;-74
2021/09/24 05:00:12;;;;;;;0.40;0.20;;;;;;;13.33;65.04;99129.23;114123;1190;93956;-75
2021/09/24 05:02:39;;;;;;;0.40;0.30;;;;;;;13.36;64.91;99132.67;113962;1190;137727;-77
2021/09/24 05:05:06;;;;;;;0.40;0.30;;;;;;;13.37;64.62;99137.61;114176;1190;93941;-76
2021/09/24 05:07:32;;;;;;;0.40;0.30;;;;;;;13.44;64.61;99140.66;114047;1190;137291;-75
2021/09/24 05:09:58;;;;;;;0.40;0.30;;;;;;;13.47;64.42;99145.10;114041;1190;93860;-77
2021/09/24 05:12:24;;;;;;;0.40;0.20;;;;;;;13.45;64.41;99151.65;113853;1192;93904;-76
2021/09/24 05:14:50;;;;;;;0.40;0.30;;;;;;;13.42;64.50;99152.34;113943;1190;138158;-76
2021/09/24 05:17:16;;;;;;;0.40;0.30;;;;;;;13.41;64.53;99155.43;114117;1190;94332;-74
2021/09/24 05:19:42;;;;;;;0.40;0.30;;;;;;;13.49;64.70;99160.29;114002;1190;137893;-76
2021/09/24 05:22:08;;;;;;;0.40;0.30;;;;;;;13.50;64.53;99167.88;114160;1190;94372;-76
2021/09/24 05:24:34;;;;;;;0.40;0.30;;;;;;;13.50;64.66;99170.56;114027;1190;137465;-76
2021/09/24 05:27:00;;;;;;;0.40;0.20;;;;;;;13.54;64.47;99166.97;114003;1190;108784;-75
2021/09/24 05:29:27;;;;;;;0.40;0.30;;;;;;;13.56;64.41;99164.52;114057;1192;94022;-75
2021/09/24 05:31:54;;;;;;;0.40;0.30;;;;;;;13.55;64.51;99164.23;113944;1193;137474;-77
2021/09/24 05:34:20;;;;;;;0.40;0.30;;;;;;;13.56;64.69;99170.80;113912;1190;93866;-76
2021/09/24 05:36:46;;;;;;;0.40;0.30;;;;;;;13.57;64.70;99175.35;113945;1190;137669;-76
2021/09/24 05:39:12;;;;;;;0.40;0.20;;;;;;;13.59;64.57;99176.48;113957;1192;108918;-77
2021/09/24 05:41:38;;;;;;;0.40;0.20;;;;;;;13.57;64.93;99183.20;114010;1190;94397;-76
2021/09/24 05:44:04;;;;;;;0.40;0.20;;;;;;;13.60;65.02;99192.27;113720;1191;138455;-76
2021/09/24 05:46:30;;;;;;;0.40;0.20;;;;;;;13.65;65.17;99192.70;114029;1190;93834;-76
2021/09/24 05:48:56;;;;;;;0.40;0.30;;;;;;;13.64;65.18;99199.23;113904;1190;138074;-75
2021/09/24 05:51:22;;;;;;;50.30;47.80;;;;;;;13.61;65.29;99200.11;113758;1193;94253;-76
2021/09/24 05:53:48;;;;;;;1.00;1.00;;;;;;;13.58;65.43;99200.27;113986;1190;93928;-75
2021/09/24 05:56:14;;;;;;;0.40;0.30;;;;;;;13.62;65.62;99200.23;113853;1190;137557;-76
2021/09/24 05:58:40;;;;;;;0.40;0.30;;;;;;;13.72;65.36;99201.44;113973;1191;93864;-76
2021/09/24 06:01:06;;;;;;;0.40;0.20;;;;;;;13.77;65.10;99207.19;113901;1190;138241;-76
2021/09/24 06:03:33;;;;;;;0.40;0.30;;;;;;;13.80;64.96;99207.90;114048;1192;95665;-76
2021/09/24 06:05:58;;;;;;;0.40;0.30;;;;;;;13.79;64.78;99213.14;114047;1190;93847;-76
2021/09/24 06:08:24;;;;;;;0.40;0.20;;;;;;;13.71;65.01;99212.74;113730;1190;137966;-76
2021/09/24 06:10:50;;;;;;;0.40;0.20;;;;;;;13.71;64.75;99217.17;113879;1191;94131;-77
2021/09/24 06:13:16;;;;;;;0.40;0.20;;;;;;;13.73;64.89;99226.85;113817;1190;138890;-77
2021/09/24 06:15:42;;;;;;;0.40;0.20;;;;;;;13.69;64.77;99228.37;114002;1193;93854;-75
2021/09/24 06:18:08;;;;;;;0.40;0.20;;;;;;;13.69;65.17;99236.00;113859;1190;94387;-75
2021/09/24 06:20:34;;;;;;;0.40;0.20;;;;;;;13.81;65.08;99233.52;113786;1190;137993;-77
2021/09/24 06:23:00;;;;;;;0.40;0.20;;;;;;;13.90;64.71;99228.02;113817;1190;107651;-75
2021/09/24 06:25:26;;;;;;;0.40;0.20;;;;;;;13.99;64.66;99229.09;113902;1191;137584;-75
2021/09/24 06:27:52;;;;;;;0.40;0.20;;;;;;;14.03;64.58;99227.65;113895;1190;93989;-76
2021/09/24 06:30:20;;;;;;;0.40;0.20;;;;;;;14.10;64.41;99229.52;113976;1192;93858;-77
2021/09/24 06:32:47;;;;;;;0.40;0.20;;;;;;;14.17;63.87;99229.10;113823;1190;138723;-77
2021/09/24 06:35:13;;;;;;;0.40;0.20;;;;;;;14.17;63.96;99231.95;113966;1190;94016;-75
2021/09/24 06:37:40;;;;;;;0.40;0.20;;;;;;;14.19;63.88;99235.59;113811;1190;137454;-75
2021/09/24 06:40:08;;;;;;;0.40;0.30;;;;;;;14.19;63.90;99233.78;113782;1193;93851;-75
2021/09/24 06:42:35;;;;;;;0.40;0.20;;;;;;;14.19;63.62;99234.16;113848;1192;138478;-75
2021/09/24 06:45:03;;;;;;;0.40;0.20;;;;;;;14.27;63.58;99230.80;113997;1192;93846;-75
2021/09/24 06:47:29;;;;;;;0.40;0.20;;;;;;;14.35;63.28;99225.70;113917;1190;94443;-77
2021/09/24 06:49:55;;;;;;;0.40;0.20;;;;;;;14.38;63.20;99230.02;113896;1190;136902;-76
2021/09/24 06:52:22;;;;;;;0.40;0.30;;;;;;;14.41;63.51;99231.25;113981;1193;95866;-77
2021/09/24 06:54:50;;;;;;;0.40;0.20;;;;;;;14.49;63.04;99235.95;113946;1193;137401;-76
2021/09/24 06:57:16;;;;;;;0.40;0.20;;;;;;;14.52;62.76;99246.83;114109;1190;94120;-77
2021/09/24 06:59:42;;;;;;;0.40;0.20;;;;;;;14.46;62.66;99247.38;114034;1192;93998;-77
2021/09/24 07:02:08;;;;;;;0.40;0.20;;;;;;;14.38;62.82;99251.21;113953;1192;137197;-76
2021/09/24 07:04:34;;;;;;;0.40;0.30;;;;;;;14.36;63.03;99251.52;114118;1192;93829;-76
2021/09/24 07:07:00;;;;;;;0.40;0.20;;;;;;;14.42;62.82;99251.92;113996;1190;137925;-76
2021/09/24 07:09:27;;;;;;;0.40;0.20;;;;;;;14.48;63.01;99248.68;114006;1193;94435;-76
2021/09/24 07:11:53;;;;;;;0.40;0.20;;;;;;;14.52;62.58;99253.75;114095;1192;108266;-76
2021/09/24 07:14:20;;;;;;;0.40;0.20;;;;;;;14.53;62.39;99256.56;113936;1192;137705;-75
2021/09/24 07:16:47;;;;;;;0.40;0.20;;;;;;;14.54;62.38;99262.59;114096;1191;93907;-76
2021/09/24 07:19:14;;;;;;;0.40;0.20;;;;;;;14.70;62.01;99271.28;114377;1190;139489;-74
2021/09/24 07:21:40;;;;;;;0.40;0.20;;;;;;;14.71;61.53;99273.73;114076;1191;94018;-75
2021/09/24 07:24:06;;;;;;;0.40;0.20;;;;;;;14.74;61.83;99279.27;114168;1192;93834;-76
2021/09/24 07:26:33;;;;;;;0.40;0.20;;;;;;;14.75;61.73;99284.21;113932;1191;138079;-76
2021/09/24 07:29:00;;;;;;;0.40;0.20;;;;;;;14.80;62.03;99285.14;114087;1192;94358;-76
2021/09/24 07:31:26;;;;;;;0.40;0.20;;;;;;;14.86;61.62;99288.34;113982;1190;138806;-77
2021/09/24 07:33:53;;;;;;;0.40;0.20;;;;;;;14.85;61.44;99294.84;114894;1190;93813;-77
2021/09/24 07:36:20;;;;;;;0.40;0.20;;;;;;;14.84;61.56;99302.39;114061;1190;94295;-76
2021/09/24 07:38:47;;;;;;;0.40;0.20;;;;;;;14.87;61.66;99306.17;114024;1190;136919;-74
2021/09/24 07:41:14;;;;;;;0.40;0.20;;;;;;;14.88;61.72;99315.92;114041;1191;94851;-75
2021/09/24 07:43:40;;;;;;;0.40;0.20;;;;;;;14.88;61.36;99318.09;113920;1190;138174;-74
2021/09/24 07:46:06;;;;;;;0.40;0.20;;;;;;;14.85;61.03;99315.59;114086;1193;95767;-76
2021/09/24 07:48:32;;;;;;;0.40;0.20;;;;;;;14.86;61.13;99319.10;114003;1190;137315;-76
2021/09/24 07:50:58;;;;;;;0.40;0.20;;;;;;;14.84;61.29;99317.41;114045;1192;93818;-75
2021/09/24 07:53:24;;;;;;;0.40;0.30;;;;;;;14.90;61.25;99318.52;114070;1191;93846;-75
2021/09/24 07:55:50;;;;;;;0.40;0.20;;;;;;;14.97;60.63;99328.08;113993;1193;137787;-77
2021/09/24 07:58:16;;;;;;;0.40;0.20;;;;;;;14.99;60.38;99326.86;113918;1191;108579;-75
2021/09/24 08:00:42;;;;;;;0.40;0.20;;;;;;;15.08;60.81;99330.95;113869;1190;137830;-74
2021/09/24 08:03:08;;;;;;;0.40;0.20;;;;;;;15.15;60.33;99335.35;114138;1193;93939;-75
2021/09/24 08:05:34;;;;;;;0.40;0.20;;;;;;;15.16;60.00;99336.36;114090;1193;93866;-75
2021/09/24 08:08:00;;;;;;;0.40;0.20;;;;;;;15.20;60.28;99337.17;113907;1190;138495;-75
2021/09/24 08:10:28;;;;;;;0.40;0.20;;;;;;;15.29;59.82;99337.38;114078;1192;93870;-75
2021/09/24 08:12:55;;;;;;;0.40;0.20;;;;;;;15.30;59.35;99333.56;113936;1190;137779;-75
2021/09/24 08:15:21;;;;;;;0.40;0.20;;;;;;;15.36;59.51;99332.77;114249;1190;93981;-74
2021/09/24 08:17:47;;;;;;;0.40;0.20;;;;;;;15.40;59.04;99331.88;113787;1192;94442;-75
2021/09/24 08:20:14;;;;;;;0.40;0.20;;;;;;;15.40;58.99;99325.25;113732;1192;137095;-77
2021/09/24 08:22:41;;;;;;;0.40;0.20;;;;;;;15.40;59.54;99329.90;113967;1190;109015;-74
2021/09/24 08:25:09;;;;;;;0.40;0.20;;;;;;;15.44;59.89;99326.94;113847;1191;138277;-76
2021/09/24 08:27:35;;;;;;;0.40;0.20;;;;;;;15.70;59.61;99330.27;113710;1193;94363;-76
2021/09/24 08:30:09;;;;;;;0.40;0.20;;;;;;;15.90;58.88;99335.63;113800;1192;94357;-75
2021/09/24 08:32:38;;;;;;;0.40;0.20;;;;;;;15.95;57.78;99339.95;113658;1190;136657;-76
2021/09/24 08:35:10;;;;;;;0.40;0.20;;;;;;;16.00;57.90;99336.80;113675;1193;108401;-75
2021/09/24 08:37:37;;;;;;;0.40;0.20;;;;;;;16.02;57.92;99334.48;113781;1190;137798;-76
2021/09/24 08:40:05;;;;;;;0.40;0.20;;;;;;;16.08;57.49;99343.63;113764;1192;93983;-77
2021/09/24 08:42:31;;;;;;;0.40;0.20;;;;;;;16.01;57.59;99342.09;114244;1190;136074;-75
2021/09/24 08:44:57;;;;;;;0.40;0.20;;;;;;;16.04;57.95;99339.95;113773;1190;94956;-75
2021/09/24 08:47:24;;;;;;;0.40;0.20;;;;;;;16.10;56.87;99339.91;114136;1190;94761;-74
2021/09/24 08:49:50;;;;;;;0.40;0.20;;;;;;;16.23;56.87;99334.93;113968;1190;137922;-74
2021/09/24 08:52:16;;;;;;;0.40;0.20;;;;;;;16.30;56.64;99334.12;114047;1190;95490;-76
2021/09/24 08:54:42;;;;;;;0.40;0.20;;;;;;;16.51;56.21;99340.38;113968;1190;137479;-74
2021/09/24 08:57:16;;;;;;;0.40;0.20;;;;;;;16.85;55.32;99353.08;114025;1190;108589;-76
2021/09/24 08:59:42;;;;;;;0.40;0.20;;;;;;;16.84;54.90;99356.77;114103;1190;110326;-77
2021/09/24 09:02:09;;;;;;;0.40;0.20;;;;;;;16.83;54.74;99359.73;113925;1190;138308;-75
2021/09/24 09:04:41;;;;;;;0.40;0.20;;;;;;;16.79;54.71;99366.58;114047;1192;94770;-74
2021/09/24 09:07:10;;;;;;;0.40;0.20;;;;;;;16.74;55.63;99367.85;113943;1190;139083;-74
2021/09/24 09:09:39;;;;;;;0.40;0.20;;;;;;;16.66;54.53;99376.43;114030;1190;109562;-75
2021/09/24 09:12:28;;;;;;;0.40;0.20;;;;;;;16.58;54.62;99375.36;114064;1190;95699;-75
2021/09/24 09:15:09;;;;;;;0.40;0.20;;;;;;;16.61;54.67;99371.08;114460;1190;138107;-76
2021/09/24 09:17:44;;;;;;;0.40;0.20;;;;;;;16.59;54.47;99370.52;114061;1190;108751;-74
2021/09/24 09:20:13;;;;;;;0.40;0.20;;;;;;;16.64;54.89;99370.71;113938;1191;138257;-75
2021/09/24 09:22:40;;;;;;;0.40;0.20;;;;;;;16.80;54.61;99364.06;114108;1190;94876;-76
2021/09/24 09:25:22;;;;;;;0.40;0.20;;;;;;;16.83;54.29;99365.64;115258;1190;138701;-76
2021/09/24 09:27:48;;;;;;;0.40;0.20;;;;;;;16.81;54.46;99372.77;115314;1190;108509;-77
2021/09/24 09:30:15;;;;;;;0.40;0.20;;;;;;;16.74;54.11;99375.02;115278;1191;93233;-77
2021/09/24 09:33:01;;;;;;;0.40;0.20;;;;;;;16.86;54.21;99372.61;114842;1190;137410;-76
2021/09/24 09:35:28;;;;;;;0.40;0.20;;;;;;;16.88;53.56;99377.49;114085;1190;94809;-76
2021/09/24 09:37:55;;;;;;;0.40;0.20;;;;;;;16.86;54.07;99379.95;113959;1190;137278;-76
2021/09/24 09:40:22;;;;;;;0.40;0.20;;;;;;;16.91;54.29;99385.72;114083;1190;95238;-77
2021/09/24 09:42:50;;;;;;;0.40;0.20;;;;;;;17.52;53.12;99393.30;114045;1190;137370;-76
2021/09/24 09:45:17;;;;;;;0.40;0.10;;;;;;;17.61;51.98;99390.52;114115;1190;94813;-76
2021/09/24 09:47:47;;;;;;;0.40;0.10;;;;;;;17.40;52.71;99392.33;114007;1192;94763;-76
2021/09/24 09:50:24;;;;;;;0.40;0.10;;;;;;;17.30;52.97;99396.52;113966;1190;137348;-76
2021/09/24 09:53:07;;;;;;;0.40;0.20;;;;;;;17.39;53.00;99394.43;114062;1190;94776;-75
2021/09/24 09:55:35;;;;;;;0.40;0.20;;;;;;;17.47;52.50;99396.03;114499;1190;138791;-74
2021/09/24 09:58:09;;;;;;;0.40;0.20;;;;;;;17.26;52.08;99395.13;114002;1190;106652;-75
2021/09/24 10:00:38;;;;;;;0.40;0.20;;;;;;;17.51;51.48;99399.08;113734;1191;138291;-76
2021/09/24 10:03:10;;;;;;;0.40;0.20;;;;;;;18.86;48.43;99399.66;113821;1190;94776;-75
2021/09/24 10:05:39;;;;;;;0.40;0.20;;;;;;;20.32;45.15;99400.36;113999;1190;94772;-76
2021/09/24 10:08:32;;;;;;;0.40;0.10;;;;;;;21.73;42.93;99398.11;113878;1190;138515;-75
2021/09/24 10:11:06;;;;;;;0.40;0.10;;;;;;;22.36;40.80;99400.65;114078;1190;110591;-74
2021/09/24 10:13:50;;;;;;;0.40;0.10;;;;;;;22.40;38.95;99401.70;113916;1190;137990;-75
2021/09/24 10:16:17;;;;;;;0.40;0.10;;;;;;;21.59;40.95;99403.51;114025;1190;94881;-76
2021/09/24 10:18:43;;;;;;;0.40;0.10;;;;;;;22.46;39.30;99403.89;113894;1190;137664;-75
2021/09/24 10:21:09;;;;;;;0.40;0.10;;;;;;;22.67;39.00;99412.04;114058;1190;94782;-77
2021/09/24 10:23:35;;;;;;;0.40;0.10;;;;;;;23.60;37.60;99408.02;114031;1190;95254;-73
2021/09/24 10:26:10;;;;;;;0.40;0.10;;;;;;;23.60;36.96;99404.77;113901;1190;137317;-75
2021/09/24 10:28:38;;;;;;;0.40;0.10;;;;;;;23.62;37.41;99412.36;114053;1190;95610;-76
2021/09/24 10:31:05;;;;;;;0.40;0.10;;;;;;;24.06;36.34;99410.13;113913;1192;137675;-76
2021/09/24 10:33:48;;;;;;;0.40;0.10;;;;;;;23.59;36.14;99403.66;113929;1190;94761;-74
2021/09/24 10:36:33;;;;;;;0.40;0.10;;;;;;;24.41;35.72;99406.61;114047;1190;94747;-76
2021/09/24 10:38:59;;;;;;;0.40;0.00;;;;;;;23.99;35.63;99413.88;113824;1190;138695;-75
2021/09/24 10:41:25;;;;;;;0.40;0.00;;;;;;;23.08;37.21;99411.75;114016;1190;95431;-76
2021/09/24 10:43:54;;;;;;;0.40;0.10;;;;;;;22.42;38.16;99410.91;113918;1190;137484;-75
2021/09/24 10:46:37;;;;;;;0.40;0.00;;;;;;;21.73;38.91;99421.05;114010;1190;94758;-77
2021/09/24 10:49:23;;;;;;;0.40;0.10;;;;;;;21.29;40.23;99423.05;113936;1190;137986;-75
2021/09/24 10:52:08;;;;;;;0.40;0.10;;;;;;;20.66;41.24;99423.86;114053;1190;108235;-76
2021/09/24 10:54:55;;;;;;;0.40;0.10;;;;;;;20.18;42.51;99424.23;114038;1190;108934;-76
2021/09/24 10:57:22;;;;;;;0.40;0.10;;;;;;;19.72;42.50;99424.27;114916;1190;94756;-76
2021/09/24 10:59:47;;;;;;;0.40;0.10;;;;;;;19.36;43.14;99429.08;113996;1190;94798;-76
2021/09/24 11:02:40;;;;;;;0.40;0.10;;;;;;;19.16;44.64;99429.95;113917;1190;137691;-76
2021/09/24 11:05:08;;;;;;;0.40;0.10;;;;;;;18.88;45.25;99428.98;113933;1192;111369;-76
2021/09/24 11:07:35;;;;;;;0.40;0.10;;;;;;;18.60;45.96;99431.67;113902;1190;139892;-77
2021/09/24 11:10:03;;;;;;;0.40;0.20;;;;;;;18.35;46.28;99433.31;115126;1190;93036;-77
2021/09/24 11:12:29;;;;;;;0.40;0.10;;;;;;;18.21;46.77;99437.05;115293;1190;108549;-78
2021/09/24 11:15:07;;;;;;;0.40;0.10;;;;;;;18.05;46.89;99435.52;115109;1191;137468;-78
2021/09/24 11:17:46;;;;;;;0.40;0.10;;;;;;;17.98;47.81;99433.67;115267;1190;92974;-75
2021/09/24 11:20:29;;;;;;;0.40;0.10;;;;;;;18.03;48.26;99436.55;115033;1190;138572;-76
2021/09/24 11:22:55;;;;;;;0.40;0.10;;;;;;;18.00;48.60;99434.46;114015;1190;109261;-75
2021/09/24 11:25:21;;;;;;;0.40;0.10;;;;;;;17.90;49.00;99442.12;113912;1191;137608;-75